createdAt,value
2019-05-06T00:01:08.121Z,4.50
2019-05-06T00:03:38.501Z,6.43
2019-05-06T00:06:08.929Z,7.70
2019-05-06T00:08:38.690Z,6.93
2019-05-06T00:11:09.152Z,5.87
2019-05-06T00:13:39.150Z,4.60
2019-05-06T00:16:08.950Z,4.53
2019-05-06T00:18:38.587Z,3.83
2019-05-06T00:21:08.930Z,4.50
2019-05-06T00:23:44.991Z,5.57
2019-05-06T00:26:44.834Z,5.50
2019-05-06T00:29:17.406Z,4.43
2019-05-06T00:31:47.307Z,4.60
2019-05-06T00:34:16.972Z,7.03
2019-05-06T00:36:46.791Z,5.07
2019-05-06T00:39:34.843Z,6.10
2019-05-06T00:42:24.598Z,5.03
2019-05-06T00:44:54.575Z,4.97
2019-05-06T00:47:24.681Z,5.50
2019-05-06T00:49:54.780Z,6.20
2019-05-06T00:52:26.025Z,4.40
2019-05-06T00:54:55.942Z,5.90
2019-05-06T00:57:44.387Z,4.60
2019-05-06T01:00:20.783Z,4.43
2019-05-06T01:02:54.291Z,4.80
2019-05-06T01:05:24.488Z,6.47
2019-05-06T01:07:55.082Z,4.40
2019-05-06T01:10:34.419Z,4.27
2019-05-06T01:13:09.579Z,5.53
2019-05-06T01:15:39.393Z,4.73
2019-05-06T01:18:09.251Z,4.43
2019-05-06T01:20:39.002Z,4.63
2019-05-06T01:23:08.823Z,4.13
2019-05-06T01:25:38.753Z,4.40
2019-05-06T01:28:08.829Z,5.00
2019-05-06T01:30:38.726Z,4.90
2019-05-06T01:33:08.806Z,5.10
2019-05-06T01:35:38.900Z,4.70
2019-05-06T01:38:40.051Z,5.50
2019-05-06T01:41:33.851Z,4.57
2019-05-06T01:44:04.388Z,4.87
2019-05-06T01:46:34.487Z,4.53
2019-05-06T01:49:04.405Z,4.27
2019-05-06T01:51:34.984Z,4.70
2019-05-06T01:54:05.138Z,4.20
2019-05-06T01:56:34.910Z,4.43
2019-05-06T01:59:04.890Z,4.60
2019-05-06T02:01:34.726Z,4.27
2019-05-06T02:04:04.672Z,5.43
2019-05-06T02:06:34.590Z,5.10
2019-05-06T02:09:08.371Z,4.40
2019-05-06T02:11:38.386Z,4.77
2019-05-06T02:14:08.125Z,4.13
2019-05-06T02:16:37.938Z,4.40
2019-05-06T02:19:07.659Z,5.23
2019-05-06T02:22:13.640Z,5.13
2019-05-06T02:24:50.050Z,4.80
2019-05-06T02:27:20.126Z,5.23
2019-05-06T02:29:58.664Z,4.97
2019-05-06T02:32:55.765Z,4.93
2019-05-06T02:36:06.412Z,5.17
2019-05-06T02:38:45.938Z,5.20
2019-05-06T02:41:07.003Z,4.80
2019-05-06T02:43:37.074Z,4.20
2019-05-06T02:46:07.138Z,4.80
2019-05-06T02:49:05.137Z,4.47
2019-05-06T02:51:35.249Z,4.37
2019-05-06T02:54:05.388Z,4.30
2019-05-06T02:56:35.528Z,4.50
2019-05-06T02:59:05.663Z,4.07
2019-05-06T03:01:35.798Z,4.87
2019-05-06T03:04:05.850Z,4.70
2019-05-06T03:06:36.100Z,4.57
2019-05-06T03:09:07.966Z,4.80
2019-05-06T03:11:37.787Z,4.27
2019-05-06T03:14:07.857Z,4.60
2019-05-06T03:16:37.908Z,4.90
2019-05-06T03:19:08.296Z,4.60
2019-05-06T03:22:15.914Z,4.63
2019-05-06T03:24:48.033Z,4.50
2019-05-06T03:27:18.317Z,5.33
2019-05-06T03:29:48.287Z,4.53
2019-05-06T03:32:28.471Z,4.40
2019-05-06T03:35:13.812Z,4.87
2019-05-06T03:37:23.941Z,4.77
2019-05-06T03:39:54.381Z,5.13
2019-05-06T03:42:24.086Z,5.10
2019-05-06T03:44:58.387Z,4.80
2019-05-06T03:47:54.260Z,5.00
2019-05-06T03:50:24.188Z,5.17
2019-05-06T03:52:56.420Z,4.90
2019-05-06T03:55:28.687Z,4.87
2019-05-06T03:57:58.492Z,4.70
2019-05-06T04:00:28.284Z,4.60
2019-05-06T04:02:58.100Z,4.90
2019-05-06T04:05:27.805Z,5.27
2019-05-06T04:07:57.598Z,7.53
2019-05-06T04:10:27.622Z,5.03
2019-05-06T04:13:03.782Z,4.90
2019-05-06T04:15:54.046Z,5.00
2019-05-06T04:18:25.251Z,5.10
2019-05-06T04:21:03.768Z,5.00
2019-05-06T04:24:04.067Z,4.87
2019-05-06T04:27:03.045Z,4.70
2019-05-06T04:29:35.634Z,5.20
2019-05-06T04:32:06.138Z,5.47
2019-05-06T04:34:37.638Z,5.50
2019-05-06T04:37:08.658Z,5.57
2019-05-06T04:39:39.426Z,5.77
2019-05-06T04:42:09.907Z,5.40
2019-05-06T04:44:40.411Z,5.60
2019-05-06T04:47:11.451Z,5.97
2019-05-06T04:49:43.698Z,5.77
2019-05-06T04:52:13.844Z,4.93
2019-05-06T04:54:44.182Z,4.50
2019-05-06T04:57:14.008Z,5.57
2019-05-06T04:59:44.520Z,4.50
2019-05-06T05:02:14.315Z,5.57
2019-05-06T05:04:44.650Z,5.10
2019-05-06T05:07:14.982Z,4.73
2019-05-06T05:09:44.875Z,4.90
2019-05-06T05:12:22.707Z,4.90
2019-05-06T05:15:11.994Z,4.70
2019-05-06T05:17:49.413Z,4.90
2019-05-06T05:20:27.898Z,4.70
2019-05-06T05:22:52.844Z,5.63
2019-05-06T05:25:23.310Z,5.50
2019-05-06T05:27:53.386Z,5.67
2019-05-06T05:30:23.571Z,5.60
2019-05-06T05:32:53.807Z,5.50
2019-05-06T05:35:23.625Z,5.90
2019-05-06T05:37:53.906Z,5.20
2019-05-06T05:40:24.004Z,5.23
2019-05-06T05:43:06.798Z,5.40
2019-05-06T05:45:36.900Z,4.50
2019-05-06T05:48:13.769Z,6.10
2019-05-06T05:50:44.004Z,5.90
2019-05-06T05:53:14.175Z,5.03
2019-05-06T05:55:44.006Z,5.30
2019-05-06T05:58:14.130Z,5.17
2019-05-06T06:00:44.987Z,5.37
2019-05-06T06:03:15.338Z,5.50
2019-05-06T06:05:45.426Z,5.77
2019-05-06T06:08:15.569Z,5.57
2019-05-06T06:10:52.400Z,4.53
2019-05-06T06:13:23.065Z,4.60
2019-05-06T06:16:13.005Z,4.57
2019-05-06T06:19:03.319Z,4.50
2019-05-06T06:21:46.347Z,4.50
2019-05-06T06:24:22.582Z,5.23
2019-05-06T06:26:52.481Z,4.17
2019-05-06T06:29:22.801Z,4.50
2019-05-06T06:32:13.739Z,4.13
2019-05-06T06:35:10.100Z,5.00
2019-05-06T06:37:36.686Z,5.00
2019-05-06T06:40:07.334Z,4.00
2019-05-06T06:42:37.238Z,4.50
2019-05-06T06:45:07.766Z,4.90
2019-05-06T06:47:38.195Z,5.03
2019-05-06T06:50:08.003Z,6.93
2019-05-06T06:52:38.075Z,7.40
2019-05-06T06:55:08.505Z,6.70
2019-05-06T06:58:02.749Z,8.53
2019-05-06T07:00:42.564Z,11.03
2019-05-06T07:03:16.033Z,7.90
2019-05-06T07:05:55.736Z,8.57
2019-05-06T07:08:34.922Z,9.50
2019-05-06T07:10:57.864Z,8.30
2019-05-06T07:13:27.750Z,8.40
2019-05-06T07:15:57.873Z,8.70
2019-05-06T07:18:27.897Z,8.33
2019-05-06T07:21:22.362Z,10.13
2019-05-06T07:23:53.022Z,10.43
2019-05-06T07:26:25.930Z,9.67
2019-05-06T07:28:56.134Z,9.23
2019-05-06T07:31:26.932Z,10.20
2019-05-06T07:33:56.986Z,9.47
2019-05-06T07:36:27.404Z,9.40
2019-05-06T07:38:57.551Z,8.90
2019-05-06T07:41:36.290Z,9.47
2019-05-06T07:44:23.647Z,8.10
2019-05-06T07:47:27.983Z,9.60
2019-05-06T07:49:57.738Z,8.60
2019-05-06T07:52:27.938Z,8.70
2019-05-06T07:54:57.846Z,10.90
2019-05-06T07:57:28.314Z,11.17
2019-05-06T07:59:58.182Z,11.47
2019-05-06T08:02:27.962Z,11.50
2019-05-06T08:04:57.706Z,11.97
2019-05-06T08:07:27.548Z,10.20
2019-05-06T08:09:57.350Z,9.87
2019-05-06T08:12:27.186Z,10.53
2019-05-06T08:14:56.998Z,9.60
2019-05-06T08:17:34.215Z,8.67
2019-05-06T08:20:04.235Z,9.30
2019-05-06T08:22:57.864Z,9.27
2019-05-06T08:25:36.753Z,8.60
2019-05-06T08:28:06.534Z,8.73
2019-05-06T08:30:36.446Z,9.30
2019-05-06T08:33:06.451Z,8.20
2019-05-06T08:35:36.318Z,7.40
2019-05-06T08:38:06.142Z,7.77
2019-05-06T08:40:35.950Z,8.83
2019-05-06T08:43:05.806Z,7.97
2019-05-06T08:45:35.664Z,8.57
2019-05-06T08:48:05.508Z,7.90
2019-05-06T08:50:44.069Z,8.37
2019-05-06T08:53:32.908Z,8.40
2019-05-06T08:56:03.915Z,7.27
2019-05-06T08:58:47.959Z,7.90
2019-05-06T09:01:48.516Z,7.30
2019-05-06T09:04:18.849Z,7.77
2019-05-06T09:06:49.170Z,7.33
2019-05-06T09:09:19.194Z,6.40
2019-05-06T09:11:49.265Z,7.50
2019-05-06T09:14:19.362Z,7.90
2019-05-06T09:16:53.071Z,7.60
2019-05-06T09:19:23.374Z,6.43
2019-05-06T09:21:53.986Z,6.93
2019-05-06T09:24:23.799Z,7.10
2019-05-06T09:26:59.449Z,7.43
2019-05-06T09:29:42.959Z,7.90
2019-05-06T09:32:17.191Z,8.50
2019-05-06T09:34:52.703Z,7.40
2019-05-06T09:37:24.025Z,8.13
2019-05-06T09:39:54.412Z,6.90
2019-05-06T09:42:25.073Z,6.90
2019-05-06T09:44:54.906Z,6.70
2019-05-06T09:47:42.873Z,8.73
2019-05-06T09:50:31.878Z,7.27
2019-05-06T09:53:02.461Z,6.20
2019-05-06T09:55:55.565Z,7.50
2019-05-06T09:58:26.171Z,6.37
2019-05-06T10:00:58.583Z,6.00
2019-05-06T10:03:32.272Z,6.10
2019-05-06T10:06:02.830Z,6.00
2019-05-06T10:08:32.731Z,5.93
2019-05-06T10:11:03.331Z,6.03
2019-05-06T10:13:33.316Z,5.67
2019-05-06T10:16:03.887Z,6.17
2019-05-06T10:18:34.124Z,5.93
2019-05-06T10:21:04.323Z,5.80
2019-05-06T10:23:34.337Z,5.50
2019-05-06T10:26:04.857Z,6.97
2019-05-06T10:28:45.921Z,6.70
2019-05-06T10:31:17.759Z,7.37
2019-05-06T10:34:05.539Z,6.30
2019-05-06T10:36:42.782Z,7.20
2019-05-06T10:39:14.937Z,7.40
2019-05-06T10:41:48.115Z,6.40
2019-05-06T10:44:32.987Z,6.30
2019-05-06T10:47:03.080Z,6.07
2019-05-06T10:49:33.676Z,6.23
2019-05-06T10:52:12.564Z,7.00
2019-05-06T10:54:42.391Z,7.27
2019-05-06T10:57:24.445Z,6.50
2019-05-06T10:59:54.602Z,6.40
2019-05-06T11:02:44.147Z,6.00
2019-05-06T11:05:14.705Z,6.80
2019-05-06T11:07:45.122Z,6.27
2019-05-06T11:10:23.900Z,5.27
2019-05-06T11:12:47.146Z,5.70
2019-05-06T11:15:25.279Z,5.50
2019-05-06T11:17:55.573Z,4.63
2019-05-06T11:20:25.686Z,4.90
2019-05-06T11:22:55.859Z,4.97
2019-05-06T11:25:25.689Z,5.60
2019-05-06T11:27:56.109Z,4.87
2019-05-06T11:30:44.937Z,5.60
2019-05-06T11:33:48.810Z,5.40
2019-05-06T11:36:24.274Z,6.23
2019-05-06T11:38:54.078Z,6.53
2019-05-06T11:41:24.502Z,6.60
2019-05-06T11:43:54.303Z,6.93
2019-05-06T11:46:24.178Z,6.90
2019-05-06T11:48:53.849Z,6.50
2019-05-06T11:51:25.669Z,6.07
2019-05-06T11:53:55.440Z,5.87
2019-05-06T11:56:25.245Z,6.30
2019-05-06T11:58:55.759Z,6.30
2019-05-06T12:01:32.880Z,6.93
2019-05-06T12:04:03.160Z,6.83
2019-05-06T12:06:33.313Z,7.00
2019-05-06T12:09:06.502Z,6.67
2019-05-06T12:11:34.807Z,7.77
2019-05-06T12:14:04.658Z,7.40
2019-05-06T12:16:34.623Z,8.17
2019-05-06T12:19:04.746Z,10.47
2019-05-06T12:21:34.594Z,8.27
2019-05-06T12:24:04.527Z,7.20
2019-05-06T12:26:34.923Z,7.60
2019-05-06T12:29:04.778Z,7.77
2019-05-06T12:31:34.582Z,7.77
2019-05-06T12:34:04.405Z,7.20
2019-05-06T12:36:34.238Z,5.63
2019-05-06T12:39:25.836Z,6.70
2019-05-06T12:42:14.739Z,7.00
2019-05-06T12:45:16.110Z,7.60
2019-05-06T12:47:58.217Z,6.73
2019-05-06T12:50:28.055Z,6.30
2019-05-06T12:52:58.090Z,6.10
2019-05-06T12:55:28.518Z,5.73
2019-05-06T12:58:07.315Z,6.57
2019-05-06T13:00:37.358Z,7.43
2019-05-06T13:03:08.040Z,6.23
2019-05-06T13:05:38.402Z,6.80
2019-05-06T13:08:08.347Z,5.60
2019-05-06T13:10:38.259Z,7.00
2019-05-06T13:13:08.947Z,7.70
2019-05-06T13:15:39.956Z,7.27
2019-05-06T13:18:10.359Z,7.30
2019-05-06T13:20:40.221Z,6.70
2019-05-06T13:23:24.576Z,8.17
2019-05-06T13:25:49.338Z,7.93
2019-05-06T13:28:22.431Z,7.63
2019-05-06T13:30:53.264Z,7.23
2019-05-06T13:33:39.689Z,7.50
2019-05-06T13:36:12.960Z,7.10
2019-05-06T13:38:42.812Z,7.47
2019-05-06T13:41:12.942Z,6.40
2019-05-06T13:43:47.023Z,7.40
2019-05-06T13:46:23.649Z,7.57
2019-05-06T13:49:13.318Z,7.30
2019-05-06T13:52:08.888Z,7.00
2019-05-06T13:54:41.959Z,6.90
2019-05-06T13:57:12.582Z,5.80
2019-05-06T13:59:44.155Z,6.90
2019-05-06T14:02:53.090Z,7.40
2019-05-06T14:05:42.911Z,6.40
2019-05-06T14:08:13.254Z,6.20
2019-05-06T14:10:43.318Z,6.80
2019-05-06T14:13:13.876Z,7.57
2019-05-06T14:15:44.230Z,6.63
2019-05-06T14:18:14.931Z,6.40
2019-05-06T14:20:45.215Z,7.60
2019-05-06T14:23:15.584Z,6.50
2019-05-06T14:26:04.306Z,6.87
2019-05-06T14:28:53.553Z,6.50
2019-05-06T14:31:26.895Z,6.70
2019-05-06T14:33:56.921Z,6.57
2019-05-06T14:36:27.676Z,7.10
2019-05-06T14:38:58.355Z,6.33
2019-05-06T14:41:29.303Z,6.50
2019-05-06T14:43:59.426Z,6.00
2019-05-06T14:46:51.096Z,6.70
2019-05-06T14:49:22.487Z,5.60
2019-05-06T14:51:53.692Z,5.60
2019-05-06T14:54:24.174Z,6.13
2019-05-06T14:57:07.259Z,6.17
2019-05-06T14:59:37.834Z,5.20
2019-05-06T15:02:08.377Z,6.23
2019-05-06T15:04:39.682Z,5.40
2019-05-06T15:07:09.534Z,6.97
2019-05-06T15:09:53.705Z,9.40
2019-05-06T15:12:13.314Z,6.60
2019-05-06T15:14:43.595Z,6.83
2019-05-06T15:17:14.449Z,6.20
2019-05-06T15:19:45.074Z,6.03
2019-05-06T15:22:15.363Z,6.00
2019-05-06T15:24:45.921Z,5.70
2019-05-06T15:27:16.722Z,6.00
2019-05-06T15:29:53.001Z,6.43
2019-05-06T15:32:38.737Z,5.57
2019-05-06T15:35:22.319Z,6.03
2019-05-06T15:37:55.500Z,6.73
2019-05-06T15:40:36.759Z,6.53
2019-05-06T15:43:06.963Z,6.40
2019-05-06T15:45:37.337Z,6.70
2019-05-06T15:48:07.791Z,6.80
2019-05-06T15:50:38.340Z,6.33
2019-05-06T15:53:08.881Z,6.00
2019-05-06T15:55:39.448Z,6.90
2019-05-06T15:58:09.434Z,6.00
2019-05-06T16:00:48.447Z,6.70
2019-05-06T16:03:18.599Z,6.20
2019-05-06T16:05:48.653Z,5.67
2019-05-06T16:08:18.981Z,7.50
2019-05-06T16:10:55.648Z,7.60
2019-05-06T16:13:23.127Z,6.17
2019-05-06T16:15:53.471Z,6.27
2019-05-06T16:18:23.880Z,6.20
2019-05-06T16:20:57.175Z,6.13
2019-05-06T16:23:48.627Z,6.10
2019-05-06T16:29:09.646Z,5.97
2019-05-06T16:31:42.157Z,5.33
2019-05-06T16:34:14.471Z,5.27
2019-05-06T16:36:44.052Z,6.20
2019-05-06T16:39:13.954Z,5.53
2019-05-06T16:41:44.723Z,5.53
2019-05-06T16:44:14.666Z,5.03
2019-05-06T16:46:44.511Z,5.33
2019-05-06T16:49:14.340Z,4.90
2019-05-06T16:51:44.356Z,5.40
2019-05-06T16:54:14.160Z,6.30
2019-05-06T16:56:52.441Z,5.13
2019-05-06T16:59:23.669Z,6.50
2019-05-06T17:01:53.270Z,5.70
2019-05-06T17:04:46.346Z,5.83
2019-05-06T17:07:16.046Z,4.23
2019-05-06T17:09:45.879Z,4.63
2019-05-06T17:12:15.601Z,4.83
2019-05-06T17:14:45.346Z,5.00
2019-05-06T17:17:15.126Z,4.60
2019-05-06T17:19:44.968Z,5.33
2019-05-06T17:22:14.858Z,4.90
2019-05-06T17:24:44.595Z,5.87
2019-05-06T17:27:14.344Z,5.57
2019-05-06T17:29:50.922Z,6.00
2019-05-06T17:32:42.033Z,5.50
2019-05-06T17:35:12.524Z,6.37
2019-05-06T17:37:52.659Z,5.20
2019-05-06T17:40:23.432Z,4.90
2019-05-06T17:42:53.462Z,5.00
2019-05-06T17:46:02.368Z,5.10
2019-05-06T17:48:48.633Z,5.00
2019-05-06T17:51:26.898Z,4.77
2019-05-06T17:53:58.272Z,4.90
2019-05-06T17:56:27.926Z,4.57
2019-05-06T17:58:57.636Z,3.97
2019-05-06T18:01:33.411Z,4.00
2019-05-06T18:04:03.373Z,4.73
2019-05-06T18:06:33.203Z,4.50
2019-05-06T18:09:03.929Z,4.63
2019-05-06T18:11:33.497Z,4.10
2019-05-06T18:14:04.231Z,4.60
2019-05-06T18:16:34.469Z,5.30
2019-05-06T18:19:04.861Z,4.50
2019-05-06T18:21:34.880Z,4.43
2019-05-06T18:24:04.992Z,4.50
2019-05-06T18:26:35.540Z,4.30
2019-05-06T18:29:06.237Z,4.53
2019-05-06T18:31:36.545Z,4.70
2019-05-06T18:34:06.679Z,4.67
2019-05-06T18:36:36.942Z,5.20
2019-05-06T18:39:07.543Z,5.43
2019-05-06T18:41:37.968Z,4.23
2019-05-06T18:44:07.946Z,4.53
2019-05-06T18:46:38.099Z,4.33
2019-05-06T18:49:07.921Z,4.87
2019-05-06T18:51:37.719Z,5.07
2019-05-06T18:54:07.514Z,5.30
2019-05-06T18:56:37.259Z,4.30
2019-05-06T18:59:07.377Z,4.40
2019-05-06T19:01:37.098Z,5.30
2019-05-06T19:04:14.895Z,4.47
2019-05-06T19:06:45.362Z,4.03
2019-05-06T19:09:32.681Z,5.87
2019-05-06T19:12:03.531Z,5.47
2019-05-06T19:14:33.949Z,4.50
2019-05-06T19:17:04.347Z,4.57
2019-05-06T19:19:35.084Z,4.73
2019-05-06T19:22:05.173Z,6.13
2019-05-06T19:24:35.774Z,5.53
2019-05-06T19:27:05.886Z,5.27
2019-05-06T19:29:36.130Z,4.90
2019-05-06T19:32:06.209Z,5.37
2019-05-06T19:34:36.539Z,4.97
2019-05-06T19:37:06.595Z,5.23
2019-05-06T19:39:36.970Z,5.00
2019-05-06T19:42:07.084Z,5.80
2019-05-06T19:44:37.073Z,5.10
2019-05-06T19:47:07.334Z,5.37
2019-05-06T19:49:37.774Z,5.73
2019-05-06T19:52:08.107Z,6.10
2019-05-06T19:54:38.442Z,5.90
2019-05-06T19:57:12.165Z,6.43
2019-05-06T19:59:42.447Z,7.10
2019-05-06T20:02:12.979Z,5.40
2019-05-06T20:04:44.754Z,5.50
2019-05-06T20:07:37.786Z,5.50
2019-05-06T20:10:27.051Z,5.40
2019-05-06T20:13:02.660Z,5.40
2019-05-06T20:15:39.221Z,6.07
2019-05-06T20:18:10.493Z,5.77
2019-05-06T20:20:42.266Z,5.60
2019-05-06T20:23:12.735Z,4.63
2019-05-06T20:25:44.859Z,6.60
2019-05-06T20:28:15.152Z,6.30
2019-05-06T20:30:45.389Z,6.43
2019-05-06T20:33:15.128Z,6.17
2019-05-06T20:35:47.571Z,6.17
2019-05-06T20:38:36.575Z,6.57
2019-05-06T20:41:06.390Z,6.50
2019-05-06T20:43:36.162Z,6.07
2019-05-06T20:46:05.981Z,8.33
2019-05-06T20:48:35.711Z,7.40
2019-05-06T20:51:05.569Z,6.73
2019-05-06T20:53:35.625Z,6.03
2019-05-06T20:56:05.930Z,6.77
2019-05-06T20:58:35.714Z,6.13
2019-05-06T21:01:05.518Z,6.33
2019-05-06T21:03:35.314Z,7.00
2019-05-06T21:06:07.106Z,7.27
2019-05-06T21:08:37.794Z,7.03
2019-05-06T21:11:22.016Z,6.60
2019-05-06T21:13:40.401Z,7.03
2019-05-06T21:16:12.901Z,6.17
2019-05-06T21:18:42.507Z,6.20
2019-05-06T21:21:13.566Z,5.30
2019-05-06T21:23:43.591Z,6.17
2019-05-06T21:26:13.713Z,7.23
2019-05-06T21:28:46.316Z,6.23
2019-05-06T21:31:15.129Z,6.70
2019-05-06T21:33:45.132Z,6.63
2019-05-06T21:36:14.948Z,6.00
2019-05-06T21:38:44.858Z,6.40
2019-05-06T21:41:17.879Z,6.67
2019-05-06T21:43:50.179Z,7.67
2019-05-06T21:46:19.660Z,6.87
2019-05-06T21:48:49.310Z,7.17
2019-05-06T21:51:19.094Z,8.40
2019-05-06T21:53:48.829Z,7.90
2019-05-06T21:56:18.552Z,7.60
2019-05-06T21:58:48.340Z,7.00
2019-05-06T22:01:18.431Z,6.23
2019-05-06T22:03:48.155Z,7.27
2019-05-06T22:06:18.039Z,6.60
2019-05-06T22:08:47.821Z,7.10
2019-05-06T22:11:17.651Z,7.20
2019-05-06T22:14:00.673Z,6.40
2019-05-06T22:16:18.806Z,7.50
2019-05-06T22:18:48.667Z,8.00
2019-05-06T22:21:24.378Z,6.93
2019-05-06T22:24:04.804Z,6.80
2019-05-06T22:26:35.273Z,6.67
2019-05-06T22:29:05.574Z,5.97
2019-05-06T22:31:35.814Z,7.20
2019-05-06T22:34:05.859Z,7.00
2019-05-06T22:36:36.186Z,7.13
2019-05-06T22:39:06.689Z,6.97
2019-05-06T22:41:36.749Z,6.80
2019-05-06T22:44:13.789Z,7.77
2019-05-06T22:46:38.762Z,6.20
2019-05-06T22:49:08.403Z,6.60
2019-05-06T22:51:38.286Z,7.80
2019-05-06T22:54:08.258Z,7.27
2019-05-06T22:56:38.171Z,6.80
2019-05-06T22:59:07.876Z,7.70
2019-05-06T23:02:09.079Z,6.70
2019-05-06T23:04:39.786Z,7.07
2019-05-06T23:07:10.167Z,7.00
2019-05-06T23:09:42.400Z,6.23
2019-05-06T23:12:14.286Z,7.37
2019-05-06T23:14:44.285Z,6.73
2019-05-06T23:17:14.007Z,6.73
2019-05-06T23:19:44.648Z,6.90
2019-05-06T23:22:14.478Z,7.60
2019-05-06T23:24:44.268Z,7.03
2019-05-06T23:27:13.993Z,6.90
2019-05-06T23:29:46.121Z,7.83
2019-05-06T23:32:15.857Z,8.13
2019-05-06T23:34:45.596Z,8.70
2019-05-06T23:37:23.529Z,7.00
2019-05-06T23:40:36.038Z,7.50
2019-05-06T23:43:42.711Z,6.50
2019-05-06T23:46:48.922Z,7.57
2019-05-06T23:49:56.138Z,6.80
2019-05-06T23:53:02.963Z,7.37
2019-05-06T23:56:08.962Z,6.40
2019-05-06T23:58:38.647Z,6.50
